Latest Weather Observations for Yeppoon

IDQ60801

Issued at 11:05 am EST Friday 18 April 2014 (issued every 30 minutes, with the page automatically refreshed every 10 minutes)

About weather observations | Map of weather stations | Latest weather observations for QLD | Other Formats
Station Details ID: 033294 Name: YEPPOON THE ESPLANADE Lat: -23.14 Lon: 150.75 Height: 5.5 m
Data from the previous 72 hours. | See also: Recent months at Yeppoon
Date/Time
EST
Temp
°C
App
Temp
°C
Dew
Point
Rel
Hum
%
Delta-T
°C
Wind Press
QNH
hPa
Press
MSL
hPa
Rain
since 9 am
mm
Dir
 
Spd
km/h
Gust
km/h
Spd
kts
Gust
kts
18/11:00am 25.6 27.5 20.6 74 3.3 NE 11 15 6 8 1016.4 - 0.0
18/10:30am 25.7 28.3 20.0 71 3.7 WNW 6 11 3 6 1016.7 - 0.0
18/10:00am 26.6 29.1 20.2 68 4.2 W 7 13 4 7 1017.0 - 0.0
18/09:30am 25.7 28.1 20.0 71 3.7 WNW 7 13 4 7 1017.2 - 0.0
18/09:00am 24.7 27.6 20.6 78 2.7 W 6 9 3 5 1017.3 1017.3 1.2
18/08:30am 23.3 25.9 20.5 84 1.8 W 7 11 4 6 1017.2 - 1.2
18/08:00am 22.1 24.6 20.2 89 1.2 W 7 9 4 5 1017.1 - 1.2
18/07:30am 20.6 22.8 19.7 95 0.6 W 7 13 4 7 1017.0 - 1.2
18/07:00am 19.2 20.9 18.6 96 0.4 W 7 11 4 6 1017.0 - 1.2
18/06:30am 18.5 20.0 18.0 97 0.3 WSW 7 9 4 5 1016.7 - 1.2
18/06:00am 18.6 20.1 18.1 97 0.3 W 7 9 4 5 1016.6 1016.6 1.2
18/05:30am 18.8 19.7 18.3 97 0.3 W 11 13 6 7 1016.4 - 1.2
18/05:00am 19.1 20.1 18.6 97 0.3 W 11 15 6 8 1016.2 - 1.2
18/04:30am 19.1 20.0 18.5 96 0.4 W 11 13 6 7 1016.0 - 1.2
18/04:00am 19.2 20.2 18.6 96 0.4 W 11 13 6 7 1016.0 - 1.2
18/03:30am 19.1 19.7 18.5 96 0.4 W 13 15 7 8 1015.9 - 1.2
18/03:00am 19.3 20.2 18.5 95 0.5 W 11 13 6 7 1016.0 1016.0 1.2
18/02:30am 19.4 20.9 18.8 96 0.4 W 9 13 5 7 1016.0 - 1.2
18/02:00am 19.6 21.1 18.8 95 0.5 W 9 13 5 7 1016.2 - 1.2
18/01:30am 19.7 21.1 18.7 94 0.6 W 9 11 5 6 1016.5 - 1.2
18/01:00am 19.8 21.3 18.8 94 0.6 W 9 11 5 6 1016.6 - 1.2
18/12:30am 20.1 22.3 19.1 94 0.6 W 6 7 3 4 1016.9 - 1.2
18/12:00am 20.1 22.0 19.0 93 0.7 W 7 9 4 5 1016.9 1016.9 1.2
 
Date/Time
EST
Temp
°C
App
Temp
°C
Dew
Point
Rel
Hum
%
Delta-T
°C
Wind Press
QNH
hPa
Press
MSL
hPa
Rain
since 9 am
mm
Dir
 
Spd
km/h
Gust
km/h
Spd
kts
Gust
kts
17/11:30pm 20.3 22.5 19.2 93 0.7 W 6 7 3 4 1017.1 - 1.2
17/11:00pm 20.6 24.1 19.5 93 0.7 CALM 0 0 0 0 1017.4 - 1.2
17/10:30pm 20.6 22.6 19.2 92 0.9 W 7 9 4 5 1017.2 - 1.2
17/10:00pm 21.0 24.4 19.4 90 1.0 CALM 0 4 0 2 1017.3 - 1.2
17/09:30pm 21.5 23.9 19.6 89 1.2 SW 6 9 3 5 1017.2 - 1.2
17/09:00pm 22.1 24.4 19.4 85 1.7 SSW 6 7 3 4 1017.2 1017.2 1.2
17/08:30pm 23.6 25.1 18.9 75 3.0 N 9 13 5 7 1017.0 - 1.2
17/08:00pm 23.7 24.6 17.6 68 3.8 N 9 13 5 7 1016.9 - 1.2
17/07:30pm 23.2 25.9 18.6 75 2.9 WSW 2 7 1 4 1016.6 - 1.2
17/07:00pm 23.6 24.8 18.3 72 3.3 NW 9 17 5 9 1015.9 - 1.2
17/06:30pm 23.5 24.2 18.9 75 2.9 N 13 20 7 11 1015.4 - 1.2
17/06:00pm 23.8 26.0 19.6 77 2.7 NNW 7 15 4 8 1015.1 1015.1 1.2
17/05:30pm 24.1 25.4 19.2 74 3.1 N 11 15 6 8 1014.8 - 1.2
17/05:00pm 24.5 24.9 19.9 75 3.0 N 17 20 9 11 1014.6 - 1.2
17/04:30pm 24.8 23.7 19.5 72 3.4 N 24 28 13 15 1014.3 - 1.2
17/04:00pm 25.5 27.0 19.8 70 3.7 ENE 11 15 6 8 1014.8 - 1.2
17/03:30pm 25.2 26.0 19.9 72 3.4 NE 15 19 8 10 1014.6 - 1.2
17/03:00pm 25.3 26.3 20.2 73 3.3 NNE 15 19 8 10 1014.3 1014.3 1.2
17/02:30pm 25.6 27.3 20.9 75 3.1 NNE 13 17 7 9 1014.5 - 1.2
17/02:00pm 25.2 28.0 20.8 76 2.9 ENE 7 11 4 6 1014.9 - 1.2
17/01:30pm 25.5 26.9 20.3 73 3.4 NE 13 17 7 9 1015.2 - 1.2
17/01:00pm 27.2 29.2 20.8 68 4.2 NE 11 13 6 7 1015.7 - 1.2
17/12:30pm 26.7 28.6 20.6 69 4.0 E 11 13 6 7 1016.0 - 1.0
17/12:00pm 26.6 28.7 21.0 71 3.7 E 11 15 6 8 1016.5 1016.5 1.0
17/11:30am 26.0 27.9 21.3 75 3.1 E 13 17 7 9 1017.0 - 1.0
17/11:00am 25.8 28.1 21.3 76 3.0 E 11 17 6 9 1017.5 - 1.0
17/10:30am 26.1 29.7 22.1 78 2.7 E 6 11 3 6 1017.8 - 1.0
17/10:00am 24.9 28.3 21.6 82 2.2 ENE 6 7 3 4 1018.0 - 1.0
17/09:30am 25.1 28.1 21.3 79 2.5 ENE 7 9 4 5 1017.9 - 0.0
17/09:00am 25.6 29.3 21.4 77 2.8 NNE 4 7 2 4 1017.8 1017.8 0.0
17/08:30am 24.2 28.1 21.2 83 2.0 SW 2 6 1 3 1017.7 - 0.0
17/08:00am 22.3 25.5 20.6 90 1.1 SW 4 7 2 4 1017.7 - 0.0
17/07:30am 21.0 23.3 19.9 93 0.7 W 7 13 4 7 1017.4 - 0.0
17/07:00am 20.2 22.3 19.4 95 0.5 WNW 7 9 4 5 1017.1 - 0.0
17/06:30am 20.2 21.9 19.4 95 0.5 W 9 11 5 6 1016.7 - 0.0
17/06:00am 20.4 22.6 19.6 95 0.5 W 7 11 4 6 1016.4 1016.4 0.0
17/05:30am 20.3 22.0 19.3 94 0.6 W 9 13 5 7 1016.0 - 0.0
17/05:00am 20.0 21.7 19.4 96 0.4 W 9 9 5 5 1015.8 - 0.0
17/04:30am 19.9 21.6 19.3 96 0.4 W 9 11 5 6 1015.6 - 0.0
17/04:00am 20.1 21.8 19.3 95 0.5 W 9 11 5 6 1015.4 - 0.0
17/03:30am 20.2 21.9 19.4 95 0.5 W 9 11 5 6 1015.3 - 0.0
17/03:00am 20.4 22.6 19.5 95 0.6 W 7 9 4 5 1015.3 1015.3 0.0
17/02:30am 20.7 23.0 19.8 95 0.6 W 7 9 4 5 1015.2 - 0.0
17/02:00am 20.9 23.5 20.0 95 0.6 W 6 7 3 4 1015.3 - 0.0
17/01:30am 21.3 23.3 19.9 92 0.9 W 9 11 5 6 1015.3 - 0.0
17/01:00am 21.7 24.3 20.0 90 1.1 W 6 9 3 5 1015.5 - 0.0
17/12:30am 22.2 24.9 20.2 88 1.3 WSW 6 7 3 4 1015.8 - 0.0
17/12:00am 22.8 25.3 20.2 85 1.7 W 7 9 4 5 1015.9 1015.9 0.0
 
Date/Time
EST
Temp
°C
App
Temp
°C
Dew
Point
Rel
Hum
%
Delta-T
°C
Wind Press
QNH
hPa
Press
MSL
hPa
Rain
since 9 am
mm
Dir
 
Spd
km/h
Gust
km/h
Spd
kts
Gust
kts
16/11:30pm 23.6 26.4 20.4 82 2.1 NW 6 7 3 4 1016.0 - 0.0
16/11:00pm 24.2 25.9 20.2 78 2.6 N 11 17 6 9 1016.0 - 0.0
16/10:30pm 24.2 26.1 20.5 80 2.4 N 11 17 6 9 1016.0 - 0.0
16/10:00pm 24.7 25.1 20.6 78 2.7 NNE 19 24 10 13 1015.7 - 0.0
16/09:30pm 24.6 24.9 20.5 78 2.7 NE 19 24 10 13 1015.7 - 0.0
16/09:00pm 23.9 25.5 20.0 79 2.5 N 11 17 6 9 1015.6 1015.6 0.0
16/08:30pm 24.0 25.2 20.0 78 2.6 N 13 17 7 9 1015.4 - 0.0
16/08:00pm 24.7 25.0 20.4 77 2.8 NNE 19 22 10 12 1015.2 - 0.0
16/07:30pm 24.6 24.9 20.5 78 2.7 NNE 19 24 10 13 1015.1 - 0.0
16/07:00pm 24.6 24.6 20.1 76 2.9 NNE 20 24 11 13 1014.6 - 0.0
16/06:30pm 24.7 25.0 20.4 77 2.8 NNE 19 24 10 13 1014.3 - 0.0
16/06:00pm 24.7 24.8 20.4 77 2.8 NNE 20 24 11 13 1014.0 1014.0 0.0
16/05:30pm 24.7 24.3 20.1 75 3.0 NNE 22 26 12 14 1013.6 - 0.0
16/05:00pm 24.7 25.6 20.9 79 2.5 NNE 17 22 9 12 1013.5 - 0.0
16/04:30pm 24.9 25.8 20.9 78 2.6 NE 17 20 9 11 1013.4 - 0.0
16/04:00pm 25.3 26.8 21.2 78 2.7 NE 15 20 8 11 1013.3 - 0.0
16/03:30pm 25.6 26.6 21.0 75 3.0 NE 17 20 9 11 1013.3 - 0.0
16/03:00pm 25.8 27.1 20.9 74 3.2 ENE 15 19 8 10 1013.6 1013.6 0.0
16/02:30pm 26.0 27.5 21.2 75 3.2 NE 15 19 8 10 1013.7 - 0.0
16/02:00pm 26.1 27.7 21.4 75 3.1 ENE 15 20 8 11 1014.0 - 0.0
16/01:30pm 25.8 27.5 20.9 74 3.2 E 13 17 7 9 1014.3 - 0.0
16/01:00pm 25.9 27.6 20.9 74 3.3 E 13 19 7 10 1014.6 - 0.0
16/12:30pm 25.7 27.2 20.5 73 3.4 E 13 17 7 9 1014.7 - 0.0
16/12:00pm 25.8 27.2 20.4 72 3.5 E 13 19 7 10 1015.2 1015.2 0.0
16/11:30am 25.6 26.7 20.4 73 3.4 E 15 19 8 10 1015.6 - 0.0
16/11:00am 25.4 27.0 20.7 75 3.1 ESE 13 22 7 12 1016.0 - 0.0
16/10:30am 25.2 26.6 20.4 74 3.1 ESE 13 20 7 11 1016.4 - 0.0
16/10:00am 24.0 25.3 20.1 79 2.5 SE 13 20 7 11 1016.7 - 0.0
16/09:30am 23.6 24.6 20.2 81 2.2 SSE 15 20 8 11 1016.7 - 0.0
16/09:00am 23.3 24.7 20.4 84 1.9 SSE 13 19 7 10 1016.6 1016.6 1.0
16/08:30am 22.7 25.0 20.7 88 1.3 S 9 15 5 8 1016.5 - 1.0
16/08:00am 22.1 24.8 20.7 92 0.9 SW 7 11 4 6 1016.4 - 1.0
16/07:30am 21.8 24.1 20.6 93 0.8 SSW 9 15 5 8 1016.2 - 0.8
16/07:00am 21.7 24.7 20.8 95 0.6 SSW 6 9 3 5 1015.9 - 0.8
16/06:30am 21.7 24.4 20.6 93 0.7 SW 7 9 4 5 1015.6 - 0.2
16/06:00am 21.7 25.7 20.6 93 0.7 CALM 0 0 0 0 1015.1 1015.1 0.0
16/05:30am 21.6 23.8 20.4 93 0.8 S 9 13 5 7 1014.9 - 0.0
16/05:00am 21.8 24.4 20.4 92 0.9 SSE 7 11 4 6 1014.8 - 0.0
16/04:30am 21.8 23.9 20.1 90 1.1 S 9 15 5 8 1014.6 - 0.0
16/04:00am 22.4 24.0 19.9 86 1.6 SE 11 19 6 10 1014.3 - 0.0
16/03:30am 21.5 23.7 20.4 93 0.7 WSW 9 11 5 6 1014.2 - 0.0
16/03:00am 22.0 24.7 20.6 92 0.9 SSE 7 9 4 5 1014.3 1014.3 0.0
16/02:30am 22.2 24.5 20.7 91 1.0 S 9 13 5 7 1014.3 - 0.0
16/02:00am 22.1 24.8 20.6 91 1.0 S 7 11 4 6 1014.4 - 0.0
16/01:30am 22.5 24.9 19.7 84 1.8 SSW 6 11 3 6 1014.7 - 0.0
16/01:00am 23.1 25.4 19.5 80 2.3 S 6 9 3 5 1014.9 - 0.0
16/12:30am 24.6 26.6 20.0 75 3.0 E 9 19 5 10 1015.1 - 0.0
16/12:00am 24.6 25.8 20.0 75 3.0 E 13 17 7 9 1015.2 1015.2 0.0
 
Date/Time
EST
Temp
°C
App
Temp
°C
Dew
Point
Rel
Hum
%
Delta-T
°C
Wind Press
QNH
hPa
Press
MSL
hPa
Rain
since 9 am
mm
Dir
 
Spd
km/h
Gust
km/h
Spd
kts
Gust
kts
15/11:30pm 24.6 25.7 19.6 73 3.2 E 13 17 7 9 1015.2 - 0.0
15/11:00pm 24.5 26.0 19.7 74 3.1 E 11 17 6 9 1015.2 - 0.0
15/10:30pm 24.5 25.8 20.2 77 2.8 E 13 20 7 11 1015.3 - 0.0
15/10:00pm 24.5 25.5 20.2 77 2.8 ENE 15 19 8 10 1015.2 - 0.0
15/09:30pm 24.6 25.6 20.3 77 2.8 ENE 15 19 8 10 1015.1 - 0.0
15/09:00pm 24.5 25.0 20.0 76 2.9 ENE 17 20 9 11 1015.0 1015.0 0.0
15/08:30pm 24.4 24.6 20.2 77 2.7 NE 19 24 10 13 1014.8 - 0.0
15/08:00pm 24.5 25.1 20.2 77 2.8 NE 17 20 9 11 1014.7 - 0.0
15/07:30pm 24.4 25.0 20.2 77 2.7 NE 17 20 9 11 1014.5 - 0.0
15/07:00pm 24.5 24.8 20.3 77 2.7 NE 19 22 10 12 1014.2 - 0.0
15/06:30pm 24.4 25.2 19.9 76 2.9 NE 15 19 8 10 1014.2 - 0.0
15/06:00pm 24.5 25.3 19.9 75 3.0 ENE 15 20 8 11 1014.0 1014.0 0.0
15/05:30pm 24.6 25.7 19.6 73 3.2 ENE 13 19 7 10 1013.8 - 0.0
15/05:00pm 24.9 26.0 19.6 72 3.4 E 13 17 7 9 1013.4 - 0.0
15/04:30pm 25.2 26.0 19.8 72 3.5 E 15 20 8 11 1013.3 - 0.0
15/04:00pm 25.6 26.0 19.9 70 3.7 E 17 20 9 11 1013.1 - 0.0
15/03:30pm 26.1 26.2 19.1 65 4.5 E 17 24 9 13 1013.1 - 0.0
15/03:00pm 26.2 26.8 19.4 66 4.4 E 15 22 8 12 1012.9 1012.9 0.0
15/02:30pm 25.9 26.5 19.5 68 4.1 E 15 20 8 11 1013.1 - 0.0
15/02:00pm 26.2 25.9 19.2 65 4.5 E 19 26 10 14 1013.2 - 0.0
15/01:30pm 26.5 26.3 19.4 65 4.6 E 19 24 10 13 1013.3 - 0.0
15/01:00pm 26.2 26.1 19.5 66 4.3 E 19 28 10 15 1013.4 - 0.0
15/12:30pm 25.9 25.5 19.0 65 4.4 ESE 19 28 10 15 1013.8 - 0.0
15/12:00pm 25.6 25.1 18.7 65 4.4 ESE 19 28 10 15 1014.2 1014.2 0.0
15/11:30am 25.7 24.5 18.3 63 4.7 E 22 28 12 15 1014.6 - 0.0

Other Formats:

Comma delimited format used in spreadsheet applications
http://www.bom.gov.au/fwo/IDQ60801/IDQ60801.94373.axf

JavaScript Object Notation format (JSON) in row-major order
http://www.bom.gov.au/fwo/IDQ60801/IDQ60801.94373.json